Time;durP1;ratioP1;P1;durP2;ratioP2;P2;SDS_P1;SDS_P2;PMS_P1;PMS_P2;Temp;Humidity;BMP_temperature;BMP_pressure;BME280_temperature;BME280_humidity;BME280_pressure;Samples;Min_cycle;Max_cycle;Signal;HPM_P1;HPM_P2
2022/04/24 00:01:51;;;;;;;15.23;8.90;;;;;;;8.33;66.06;99739.02;3734905;78;98593;-82
2022/04/24 00:06:53;;;;;;;14.65;8.05;;;;;;;8.33;65.62;99734.34;3745564;77;98343;-82
2022/04/24 00:11:54;;;;;;;15.88;7.92;;;;;;;8.36;65.33;99736.34;3729841;78;98321;-82
2022/04/24 00:16:55;;;;;;;15.87;8.03;;;;;;;8.37;65.07;99729.68;3742576;78;98610;-82
2022/04/24 00:21:57;;;;;;;16.60;8.00;;;;;;;8.41;64.86;99723.62;3703983;77;98722;-82
2022/04/24 00:26:59;;;;;;;15.23;7.28;;;;;;;8.40;64.73;99717.17;3690195;79;98528;-82
2022/04/24 00:32:00;;;;;;;13.05;6.87;;;;;;;8.39;64.52;99715.59;3701133;78;98374;-82
2022/04/24 00:37:01;;;;;;;13.47;7.13;;;;;;;8.36;64.28;99718.52;3703682;79;98383;-82
2022/04/24 00:42:03;;;;;;;18.27;9.07;;;;;;;8.28;64.31;99712.75;3694882;79;98104;-82
2022/04/24 00:47:15;;;;;;;15.37;8.47;;;;;;;8.20;64.45;99713.87;3706089;79;98274;-82
2022/04/24 00:52:18;;;;;;;22.52;11.08;;;;;;;8.13;64.70;99720.60;3681706;78;98537;-82
2022/04/24 00:57:19;;;;;;;24.82;12.63;;;;;;;8.03;65.21;99715.84;3692481;79;99059;-82
2022/04/24 01:02:20;;;;;;;20.57;11.20;;;;;;;7.92;66.10;99710.03;3684365;79;98964;-82
2022/04/24 01:07:21;;;;;;;18.83;10.77;;;;;;;7.67;66.35;99710.34;3707067;77;98651;-82
2022/04/24 01:12:22;;;;;;;23.20;12.17;;;;;;;7.46;66.91;99704.63;3689661;79;98644;-82
2022/04/24 01:17:23;;;;;;;24.47;13.60;;;;;;;7.34;67.56;99706.23;3696584;78;33063;-82
2022/04/24 01:22:25;;;;;;;23.07;13.10;;;;;;;7.16;68.02;99706.61;3690808;78;98715;-82
2022/04/24 01:27:26;;;;;;;26.50;13.80;;;;;;;6.99;68.58;99698.95;3702054;79;99065;-82
2022/04/24 01:32:27;;;;;;;27.90;15.70;;;;;;;6.86;68.96;99703.05;3726523;78;99209;-82
2022/04/24 01:37:28;;;;;;;38.03;19.70;;;;;;;6.73;69.13;99695.67;3700015;79;98646;-82
2022/04/24 01:42:29;;;;;;;41.23;22.13;;;;;;;6.60;69.71;99690.19;3706083;78;98652;-82
2022/04/24 01:47:29;;;;;;;34.33;19.43;;;;;;;6.48;70.07;99689.59;3670848;79;32444;-82
2022/04/24 01:52:30;;;;;;;31.42;15.72;;;;;;;6.38;70.59;99688.28;3664002;79;98488;-81
2022/04/24 01:57:31;;;;;;;27.33;14.50;;;;;;;6.25;71.18;99678.72;3670688;79;98737;-82
2022/04/24 02:02:32;;;;;;;31.90;15.13;;;;;;;6.06;71.07;99689.70;3656844;79;98698;-82
2022/04/24 02:07:33;;;;;;;27.63;13.93;;;;;;;5.99;71.79;99691.52;3678141;79;99166;-82
2022/04/24 02:12:35;;;;;;;26.80;13.47;;;;;;;5.93;71.84;99692.98;3678810;79;98978;-82
2022/04/24 02:17:37;;;;;;;26.97;14.73;;;;;;;5.82;72.12;99684.61;3681521;78;26194;-82
2022/04/24 02:22:38;;;;;;;26.37;12.73;;;;;;;5.76;72.34;99683.87;3669997;78;98443;-82
2022/04/24 02:27:39;;;;;;;24.13;13.23;;;;;;;5.67;72.80;99684.70;3682800;79;98516;-82
2022/04/24 02:32:39;;;;;;;23.53;13.10;;;;;;;5.58;73.03;99682.77;3666220;80;98678;-82
2022/04/24 02:37:42;;;;;;;21.27;11.93;;;;;;;5.49;73.11;99678.89;3675318;80;98726;-83
2022/04/24 02:42:42;;;;;;;23.25;12.85;;;;;;;5.39;73.68;99675.38;3674372;78;98586;-82
2022/04/24 02:47:43;;;;;;;20.77;12.13;;;;;;;5.25;73.85;99672.36;3679230;78;26247;-82
2022/04/24 02:52:51;;;;;;;21.03;11.03;;;;;;;5.12;74.33;99672.30;3664930;78;98767;-82
2022/04/24 02:57:54;;;;;;;17.27;10.50;;;;;;;5.03;74.69;99665.50;3701561;78;98543;-82
2022/04/24 03:02:55;;;;;;;20.57;11.03;;;;;;;4.95;75.46;99659.66;3720348;78;98986;-82
2022/04/24 03:07:56;;;;;;;21.07;11.33;;;;;;;4.84;75.44;99660.02;3718770;78;98627;-82
2022/04/24 03:12:56;;;;;;;20.17;10.23;;;;;;;4.77;75.86;99659.87;3700177;78;98776;-81
2022/04/24 03:17:58;;;;;;;21.20;12.00;;;;;;;4.68;75.86;99657.34;3742042;78;26029;-81
2022/04/24 03:22:58;;;;;;;18.63;10.37;;;;;;;4.58;76.58;99653.81;3744569;75;99180;-82
2022/04/24 03:27:59;;;;;;;16.07;9.13;;;;;;;4.51;76.90;99647.41;3813483;76;97732;-81
2022/04/24 03:33:00;;;;;;;17.87;9.30;;;;;;;4.49;77.43;99647.79;3823475;76;98765;-81
2022/04/24 03:38:02;;;;;;;19.00;9.70;;;;;;;4.57;78.74;99642.70;3826479;75;98970;-81
2022/04/24 03:43:03;;;;;;;16.63;9.13;;;;;;;4.73;78.87;99654.34;3803523;76;98477;-81
2022/04/24 03:48:04;;;;;;;16.37;9.43;;;;;;;4.83;78.92;99651.06;3760446;78;26381;-81
2022/04/24 03:53:06;;;;;;;17.67;10.57;;;;;;;4.96;79.21;99648.41;3745463;77;98533;-81
2022/04/24 03:58:07;;;;;;;22.43;11.00;;;;;;;5.05;79.69;99638.08;3763023;77;98779;-81
2022/04/24 04:03:08;;;;;;;19.73;10.10;;;;;;;5.16;79.87;99645.91;3737162;77;99149;-81
2022/04/24 04:08:09;;;;;;;17.47;10.07;;;;;;;5.30;79.94;99634.48;3747314;77;98687;-81
2022/04/24 04:13:10;;;;;;;17.37;9.35;;;;;;;5.41;80.17;99632.73;3738382;76;98629;-81
2022/04/24 04:18:11;;;;;;;17.90;8.60;;;;;;;5.54;80.23;99630.05;3749065;78;98848;-81
2022/04/24 04:23:12;;;;;;;16.67;9.00;;;;;;;5.59;80.94;99623.73;3752448;77;98579;-81
2022/04/24 04:28:13;;;;;;;21.03;10.47;;;;;;;5.64;80.97;99622.06;3759166;76;98640;-81
2022/04/24 04:33:14;;;;;;;18.80;10.53;;;;;;;5.67;80.94;99615.86;3729153;78;98807;-81
2022/04/24 04:38:15;;;;;;;16.80;10.70;;;;;;;5.66;81.33;99609.39;3717638;79;98657;-80
2022/04/24 04:43:16;;;;;;;21.33;9.90;;;;;;;5.68;80.99;99617.44;3697622;79;98746;-81
2022/04/24 04:48:17;;;;;;;15.77;9.00;;;;;;;5.69;81.29;99601.86;3679418;80;98541;-81
2022/04/24 04:53:17;;;;;;;18.90;10.37;;;;;;;5.69;81.47;99597.20;3684027;79;98394;-80
2022/04/24 04:58:19;;;;;;;20.90;10.13;;;;;;;5.69;81.61;99605.39;3709564;77;98970;-80
2022/04/24 05:03:20;;;;;;;16.32;10.35;;;;;;;5.73;81.69;99599.39;3691801;78;98999;-81
2022/04/24 05:08:20;;;;;;;16.17;9.00;;;;;;;5.77;82.50;99605.70;3704543;79;98679;-82
2022/04/24 05:13:21;;;;;;;17.80;9.43;;;;;;;5.85;82.33;99599.82;3700304;78;98649;-82
2022/04/24 05:18:22;;;;;;;17.43;10.17;;;;;;;5.98;81.75;99604.72;3697769;78;98514;-81
2022/04/24 05:23:23;;;;;;;18.07;10.63;;;;;;;6.11;81.80;99613.51;3697739;77;98865;-81
2022/04/24 05:28:24;;;;;;;18.00;9.40;;;;;;;6.23;81.60;99618.17;3813007;75;98454;-81
2022/04/24 05:33:25;;;;;;;14.53;7.97;;;;;;;6.44;81.51;99610.89;3821502;76;98319;-82
2022/04/24 05:38:26;;;;;;;17.17;8.47;;;;;;;6.82;80.97;99614.73;3830391;76;98709;-81
2022/04/24 05:43:27;;;;;;;14.73;8.30;;;;;;;7.32;79.95;99617.66;3818726;76;98394;-81
2022/04/24 05:48:28;;;;;;;17.32;8.98;;;;;;;7.90;79.32;99614.52;3807450;76;98462;-82
2022/04/24 05:53:29;;;;;;;17.37;7.50;;;;;;;8.61;79.02;99616.62;3826422;76;98237;-81
2022/04/24 05:58:30;;;;;;;13.20;7.47;;;;;;;9.30;77.49;99618.70;3809052;76;98270;-82
2022/04/24 06:03:31;;;;;;;15.23;7.37;;;;;;;9.74;74.61;99619.98;3824603;75;98586;-83
2022/04/24 06:08:32;;;;;;;14.67;7.37;;;;;;;10.05;73.74;99612.97;3828498;76;98573;-82
2022/04/24 06:13:33;;;;;;;14.68;6.97;;;;;;;10.39;73.51;99612.17;3810856;75;98822;-81
2022/04/24 06:18:34;;;;;;;13.70;6.77;;;;;;;10.72;71.02;99619.16;3841378;76;99115;-81
2022/04/24 06:23:35;;;;;;;12.27;6.93;;;;;;;10.89;69.81;99605.94;3818355;76;98960;-81
2022/04/24 06:28:36;;;;;;;15.73;7.80;;;;;;;10.89;69.81;99605.94;3777896;76;99051;-81
2022/04/24 06:33:37;;;;;;;20.80;9.80;;;;;;;10.91;68.94;99611.85;3770337;77;98906;-82
2022/04/24 06:38:38;;;;;;;14.70;7.70;;;;;;;10.91;69.52;99609.09;3775011;76;99086;-82
2022/04/24 06:43:39;;;;;;;14.17;7.63;;;;;;;10.95;68.37;99609.27;3752556;77;98857;-81
2022/04/24 06:48:40;;;;;;;14.90;7.95;;;;;;;11.06;67.99;99606.50;3766621;78;98780;-83
2022/04/24 06:53:41;;;;;;;17.07;8.33;;;;;;;11.13;67.39;99611.96;3768212;77;98751;-82
2022/04/24 06:58:42;;;;;;;19.02;9.48;;;;;;;11.19;67.55;99621.38;3760245;78;98696;-82
2022/04/24 07:03:43;;;;;;;16.43;9.07;;;;;;;11.26;68.29;99607.56;3757778;76;99163;-81
2022/04/24 07:08:44;;;;;;;18.70;8.80;;;;;;;11.46;68.29;99596.25;3768880;78;99313;-80
2022/04/24 07:13:45;;;;;;;14.10;8.30;;;;;;;11.73;68.58;99597.29;3732525;77;99111;-81
2022/04/24 07:18:46;;;;;;;14.90;8.00;;;;;;;11.92;67.33;99593.98;3714269;77;98885;-81
2022/04/24 07:23:47;;;;;;;14.10;7.97;;;;;;;12.11;67.61;99602.49;3710516;78;98654;-81
2022/04/24 07:28:48;;;;;;;14.17;7.20;;;;;;;12.28;66.19;99591.13;3703563;78;98968;-81
2022/04/24 07:33:49;;;;;;;14.77;7.97;;;;;;;12.39;66.34;99591.81;3714856;77;98884;-81
2022/04/24 07:38:50;;;;;;;14.45;7.85;;;;;;;12.51;65.19;99588.53;3724859;78;99157;-81
2022/04/24 07:43:51;;;;;;;12.70;7.70;;;;;;;12.64;65.53;99579.94;3707183;79;99023;-81
2022/04/24 07:48:52;;;;;;;12.70;7.00;;;;;;;12.78;64.83;99576.41;3723609;78;99197;-82
2022/04/24 07:53:53;;;;;;;13.33;6.10;;;;;;;12.96;65.15;99560.44;3720352;79;99256;-82
2022/04/24 07:58:54;;;;;;;11.50;6.40;;;;;;;13.15;64.87;99555.67;3735532;78;99107;-81
2022/04/24 08:03:55;;;;;;;12.60;6.55;;;;;;;13.29;63.99;99560.98;3697618;78;99058;-81
2022/04/24 08:08:55;;;;;;;10.80;6.10;;;;;;;13.48;63.77;99560.92;3670360;78;98831;-80
2022/04/24 08:13:56;;;;;;;11.17;7.03;;;;;;;13.64;63.27;99561.09;3684589;77;98900;-82
2022/04/24 08:19:01;;;;;;;11.90;7.77;;;;;;;13.88;62.53;99568.20;3696354;78;98789;-81
2022/04/24 08:24:00;;;;;;;15.43;7.57;;;;;;;14.12;61.42;99562.26;3701491;78;98766;-81
2022/04/24 08:29:00;;;;;;;13.63;7.63;;;;;;;14.66;62.99;99555.98;3712638;78;98575;-80
2022/04/24 08:34:01;;;;;;;15.55;8.98;;;;;;;15.39;59.21;99549.52;3713448;77;98932;-81
2022/04/24 08:39:02;;;;;;;14.75;8.40;;;;;;;15.94;60.26;99548.02;3719028;78;99039;-81
2022/04/24 08:44:07;;;;;;;12.13;7.30;;;;;;;16.27;58.60;99535.08;3714121;78;98954;-81
2022/04/24 08:49:09;;;;;;;12.85;7.75;;;;;;;17.10;58.56;99536.73;3711209;78;98791;-81
2022/04/24 08:54:12;;;;;;;11.97;6.87;;;;;;;17.35;55.82;99528.44;3699418;78;98746;-81
2022/04/24 08:59:14;;;;;;;11.37;7.67;;;;;;;17.66;53.23;99529.45;3696863;79;98436;-80
2022/04/24 09:04:14;;;;;;;11.87;7.13;;;;;;;18.06;53.47;99531.14;3707884;79;99081;-80
2022/04/24 09:09:15;;;;;;;14.50;7.00;;;;;;;18.76;51.10;99537.86;3726528;78;98834;-80
2022/04/24 09:14:19;;;;;;;11.20;6.47;;;;;;;18.87;48.38;99539.65;3704861;78;98413;-80
2022/04/24 09:19:25;;;;;;;14.00;8.35;;;;;;;19.04;49.45;99543.79;3724771;78;98829;-80
2022/04/24 09:24:49;;;;;;;11.38;7.28;;;;;;;19.70;47.86;99537.65;3729535;77;98883;-80
2022/04/24 09:29:55;;;;;;;11.18;5.83;;;;;;;19.92;48.73;99527.78;3709467;77;26752;-80
2022/04/24 09:34:57;;;;;;;7.22;4.55;;;;;;;20.26;47.14;99528.35;3770414;78;98688;-80
2022/04/24 09:39:58;;;;;;;8.83;5.42;;;;;;;20.61;46.76;99525.41;3771700;77;99108;-80
2022/04/24 09:45:01;;;;;;;9.37;5.00;;;;;;;20.38;43.97;99523.88;3787393;77;98613;-79
2022/04/24 09:50:04;;;;;;;9.33;5.20;;;;;;;20.56;45.50;99527.45;3778900;77;98573;-80
2022/04/24 09:55:06;;;;;;;8.48;4.85;;;;;;;21.02;44.15;99519.81;3766221;77;98979;-80
2022/04/24 10:00:09;;;;;;;10.70;6.00;;;;;;;21.11;42.45;99529.59;3782241;78;25833;-81
2022/04/24 10:05:10;;;;;;;8.45;4.87;;;;;;;21.22;40.32;99514.48;3752821;78;98663;-81
2022/04/24 10:10:12;;;;;;;8.88;5.12;;;;;;;21.06;41.75;99509.24;3775097;77;98494;-80
2022/04/24 10:15:16;;;;;;;8.33;4.30;;;;;;;20.74;42.33;99507.87;3778790;77;98700;-81
2022/04/24 10:20:59;;;;;;;6.77;4.23;;;;;;;20.60;41.01;99499.34;3779740;78;98962;-81
2022/04/24 10:26:03;;;;;;;8.25;4.65;;;;;;;20.83;40.07;99504.28;3782749;77;98575;-80
2022/04/24 10:31:07;;;;;;;7.45;4.45;;;;;;;20.19;40.58;99497.92;3780363;77;98572;-81
2022/04/24 10:36:14;;;;;;;7.00;4.72;;;;;;;20.46;42.33;99495.15;3782262;78;26141;-80
2022/04/24 10:41:23;;;;;;;8.35;4.90;;;;;;;20.53;41.28;99479.45;3765308;78;98708;-80
2022/04/24 10:46:35;;;;;;;8.40;4.17;;;;;;;20.21;40.59;99488.45;3772342;77;98741;-80
2022/04/24 10:51:39;;;;;;;10.15;5.33;;;;;;;20.17;40.44;99481.47;3722796;78;98723;-81
2022/04/24 10:56:49;;;;;;;9.05;5.55;;;;;;;20.06;39.88;99483.27;3726414;78;98823;-80
2022/04/24 11:01:51;;;;;;;7.97;4.97;;;;;;;20.27;41.68;99476.81;3702741;78;98656;-81
2022/04/24 11:07:05;;;;;;;8.63;5.00;;;;;;;20.70;40.52;99466.70;3730472;78;98563;-79
2022/04/24 11:12:07;;;;;;;9.33;5.17;;;;;;;20.70;39.43;99468.73;3745475;77;98489;-82
2022/04/24 11:17:08;;;;;;;9.23;4.70;;;;;;;20.28;40.24;99482.55;3775099;77;98326;-81
2022/04/24 11:22:13;;;;;;;8.03;4.53;;;;;;;20.03;41.72;99466.06;3761718;77;98707;-81
2022/04/24 11:27:15;;;;;;;;;;;;;;;20.18;41.70;99466.25;3729978;77;98638;-83
2022/04/24 11:32:17;;;;;;;10.57;5.47;;;;;;;19.77;40.35;99470.95;3719469;77;84811;-80
2022/04/24 11:37:22;;;;;;;9.35;5.00;;;;;;;19.62;41.21;99470.77;3716164;78;99054;-80
2022/04/24 11:42:25;;;;;;;8.27;4.80;;;;;;;19.34;41.36;99471.91;3723326;77;99092;-83
2022/04/24 11:52:49;;;;;;;9.10;5.08;;;;;;;18.97;43.13;99477.74;3715075;77;98730;-81
2022/04/24 11:58:02;;;;;;;9.33;5.92;;;;;;;18.71;43.32;99474.33;3726284;78;98473;-80
2022/04/24 12:03:05;;;;;;;12.45;6.95;;;;;;;18.68;44.07;99463.29;3719407;78;98640;-81
2022/04/24 12:08:07;;;;;;;9.58;5.50;;;;;;;18.54;43.84;99459.64;3731164;78;98810;-81
2022/04/24 12:13:09;;;;;;;10.95;6.10;;;;;;;18.81;44.99;99443.10;3728887;78;98710;-81
2022/04/24 12:18:10;;;;;;;10.85;5.42;;;;;;;19.29;44.23;99429.26;3732086;78;25837;-82
2022/04/24 12:23:16;;;;;;;8.63;4.93;;;;;;;19.13;43.12;99427.31;3724192;77;98850;-84
2022/04/24 12:28:39;;;;;;;9.03;5.50;;;;;;;19.25;43.38;99409.72;3718963;77;98905;-82
2022/04/24 12:33:49;;;;;;;9.05;5.17;;;;;;;19.29;42.18;99385.25;3716309;77;98863;-81
2022/04/24 12:38:56;;;;;;;10.58;5.33;;;;;;;19.29;41.51;99386.02;3721331;79;98609;-80
2022/04/24 12:44:02;;;;;;;8.43;5.42;;;;;;;18.91;42.43;99372.98;3700183;78;98811;-82
2022/04/24 12:49:03;;;;;;;10.18;6.17;;;;;;;18.91;41.85;99382.73;3690219;78;98976;-81
2022/04/24 12:54:04;;;;;;;8.48;5.40;;;;;;;18.61;42.80;99367.41;3673787;78;98805;-81
2022/04/24 12:59:05;;;;;;;9.63;6.30;;;;;;;18.51;43.34;99371.38;3699223;77;98795;-81
2022/04/24 13:04:06;;;;;;;10.37;6.17;;;;;;;18.48;43.43;99361.16;3716673;78;98694;-81
2022/04/24 13:09:10;;;;;;;9.97;6.23;;;;;;;18.30;43.04;99365.96;3680127;76;98852;-81
2022/04/24 13:14:11;;;;;;;9.30;5.75;;;;;;;18.20;43.56;99366.36;3696770;78;99093;-80
2022/04/24 13:19:12;;;;;;;9.73;5.97;;;;;;;18.18;42.71;99363.23;3692623;78;98606;-80
2022/04/24 13:24:14;;;;;;;11.10;6.20;;;;;;;18.13;42.47;99352.08;3736003;77;98503;-81
2022/04/24 13:29:14;;;;;;;9.93;6.20;;;;;;;18.34;43.21;99338.79;3752132;77;98616;-81
2022/04/24 13:34:18;;;;;;;9.50;5.90;;;;;;;18.40;42.64;99339.75;3736845;77;98857;-82
2022/04/24 13:39:19;;;;;;;10.20;6.03;;;;;;;18.41;41.50;99335.73;3744978;77;98589;-80
2022/04/24 13:44:20;;;;;;;10.33;5.63;;;;;;;18.33;42.20;99333.66;3728065;77;99180;-83
2022/04/24 13:49:21;;;;;;;9.27;5.77;;;;;;;18.60;42.51;99339.39;3757092;77;98872;-82
2022/04/24 13:54:22;;;;;;;9.00;5.53;;;;;;;18.78;42.88;99333.29;3734987;77;109406;-80
2022/04/24 13:59:24;;;;;;;11.23;6.60;;;;;;;18.58;42.36;99332.12;3739250;79;26524;-83
2022/04/24 14:04:25;;;;;;;10.03;6.03;;;;;;;18.24;41.55;99332.97;3686585;78;98757;-81
2022/04/24 14:09:26;;;;;;;8.50;5.23;;;;;;;18.05;42.48;99328.48;3709441;78;99302;-81
2022/04/24 14:14:27;;;;;;;12.27;6.73;;;;;;;17.76;43.30;99329.36;3724261;77;98613;-81
2022/04/24 14:19:28;;;;;;;8.83;5.33;;;;;;;17.85;43.67;99318.91;3705771;77;99190;-80
2022/04/24 14:24:29;;;;;;;8.00;4.80;;;;;;;17.79;43.68;99322.91;3719009;77;98843;-80
2022/04/24 14:29:30;;;;;;;8.47;5.30;;;;;;;17.70;43.36;99326.20;3718123;78;33187;-80
2022/04/24 14:34:31;;;;;;;9.00;5.20;;;;;;;17.61;43.64;99318.55;3755242;78;98951;-81
2022/04/24 14:39:32;;;;;;;8.30;5.70;;;;;;;17.53;44.11;99329.78;3761884;77;98701;-81
2022/04/24 14:44:34;;;;;;;8.40;4.97;;;;;;;17.56;44.33;99328.86;3752128;78;98349;-81
2022/04/24 15:00:15;;;;;;;9.53;6.00;;;;;;;17.37;44.71;99321.56;3741568;77;26209;-80
2022/04/24 15:05:16;;;;;;;9.68;6.30;;;;;;;17.36;45.40;99319.22;3744528;77;98628;-80
2022/04/24 15:10:17;;;;;;;11.47;5.83;;;;;;;17.30;45.58;99310.68;3752329;78;97578;-80
2022/04/24 15:15:21;;;;;;;10.17;5.93;;;;;;;17.14;45.95;99305.86;3785016;77;98799;-80
2022/04/24 15:20:22;;;;;;;10.37;6.03;;;;;;;17.02;46.02;99309.45;3772468;76;98851;-80
2022/04/24 15:25:23;;;;;;;10.77;6.47;;;;;;;16.95;46.26;99306.91;3772248;77;99010;-82
2022/04/24 15:30:24;;;;;;;11.53;7.37;;;;;;;16.90;46.14;99310.25;3802776;77;98730;-80
2022/04/24 15:35:25;;;;;;;10.60;6.70;;;;;;;16.72;46.38;99305.84;3821081;76;98958;-80
2022/04/24 15:40:26;;;;;;;12.13;6.93;;;;;;;16.63;46.48;99315.48;3812757;76;98631;-80
2022/04/24 15:45:27;;;;;;;10.30;7.17;;;;;;;16.52;46.94;99309.47;3767203;76;99199;-81
2022/04/24 15:50:31;;;;;;;11.00;7.07;;;;;;;16.55;47.29;99312.13;3769114;77;99106;-79
2022/04/24 15:55:34;;;;;;;11.93;7.33;;;;;;;16.41;47.32;99312.55;3775611;77;98862;-80
2022/04/24 16:00:37;;;;;;;11.18;7.05;;;;;;;16.32;47.91;99311.03;3787659;76;98819;-79
2022/04/24 16:05:38;;;;;;;15.63;9.98;;;;;;;16.24;48.21;99300.58;3784792;76;98282;-81
2022/04/24 16:10:40;;;;;;;14.30;9.67;;;;;;;16.20;48.43;99304.06;3784613;76;98598;-80
2022/04/24 16:15:43;;;;;;;14.03;8.28;;;;;;;16.08;48.50;99301.42;3784982;76;98891;-80
2022/04/24 16:20:44;;;;;;;14.25;7.87;;;;;;;15.95;48.80;99288.12;3788129;76;99111;-80
2022/04/24 16:25:46;;;;;;;14.60;6.95;;;;;;;15.86;49.26;99289.38;3751950;76;98733;-80
2022/04/24 16:30:47;;;;;;;13.30;7.17;;;;;;;15.82;49.40;99280.39;3738290;78;99490;-80
2022/04/24 16:35:48;;;;;;;11.77;7.10;;;;;;;15.77;49.83;99270.42;3748745;77;98492;-80
2022/04/24 16:40:49;;;;;;;12.57;7.33;;;;;;;15.64;50.12;99263.45;3741835;78;98684;-81
2022/04/24 16:45:50;;;;;;;11.67;7.17;;;;;;;15.58;50.60;99267.98;3751525;77;98751;-80
2022/04/24 17:01:31;;;;;;;14.43;8.40;;;;;;;15.38;51.32;99251.31;3693982;78;99682;-81
2022/04/24 17:06:32;;;;;;;11.85;7.30;;;;;;;15.29;51.84;99261.62;3724446;76;99189;-76
2022/04/24 17:11:33;;;;;;;10.73;6.37;;;;;;;15.22;52.00;99258.25;3760685;77;98532;-79
2022/04/24 17:16:34;;;;;;;11.13;6.67;;;;;;;15.17;52.47;99255.41;3743587;76;98672;-81
2022/04/24 17:21:35;;;;;;;13.37;7.30;;;;;;;15.07;52.56;99253.69;3727752;78;98891;-80
2022/04/24 17:26:37;;;;;;;12.57;6.63;;;;;;;14.99;52.92;99257.08;3743592;78;98763;-80
2022/04/24 17:31:38;;;;;;;11.63;7.13;;;;;;;14.90;53.01;99256.30;3781043;76;98876;-80
2022/04/24 17:36:39;;;;;;;11.27;6.63;;;;;;;14.83;53.41;99259.85;3790792;76;98769;-79
2022/04/24 17:41:41;;;;;;;10.27;5.70;;;;;;;14.77;53.42;99262.97;3806551;76;98865;-79
2022/04/24 17:46:43;;;;;;;12.80;7.10;;;;;;;14.74;54.09;99272.13;3807862;76;98737;-80
2022/04/24 17:51:45;;;;;;;12.13;7.45;;;;;;;14.67;54.02;99275.08;3796400;76;98920;-81
2022/04/24 17:56:48;;;;;;;13.90;8.28;;;;;;;14.62;54.34;99276.98;3808928;76;98768;-81
2022/04/24 18:01:51;;;;;;;11.80;7.57;;;;;;;14.54;54.37;99289.41;3799715;76;98900;-81
2022/04/24 18:06:53;;;;;;;12.95;7.62;;;;;;;14.48;54.72;99289.16;3798982;75;98824;-81
2022/04/24 18:11:54;;;;;;;13.73;7.80;;;;;;;14.40;54.89;99291.89;3804570;76;98956;-82
2022/04/24 18:16:55;;;;;;;11.18;7.45;;;;;;;14.36;55.11;99299.52;3812181;76;98624;-81
2022/04/24 18:27:17;;;;;;;12.53;7.12;;;;;;;14.23;55.23;99313.06;3507988;82;99436;-83
2022/04/24 18:32:18;;;;;;;12.03;7.10;;;;;;;14.14;55.62;99319.14;3557740;82;99286;-82
2022/04/24 18:37:37;;;;;;;11.47;6.87;;;;;;;14.04;56.08;99335.36;3578164;81;99242;-82
2022/04/24 18:42:38;;;;;;;11.33;6.45;;;;;;;14.00;55.71;99338.03;3551517;82;99163;-81
2022/04/24 18:47:40;;;;;;;10.00;5.65;;;;;;;13.92;56.52;99345.69;3558265;82;33295;-81
2022/04/24 18:52:40;;;;;;;11.30;6.07;;;;;;;13.87;55.96;99339.84;3555612;81;98928;-80
2022/04/24 18:57:41;;;;;;;9.37;5.93;;;;;;;13.83;56.58;99346.05;3561001;82;99372;-81
2022/04/24 19:02:42;;;;;;;13.57;6.33;;;;;;;13.78;56.90;99353.44;3514066;82;98670;-82
2022/04/24 19:07:44;;;;;;;10.73;5.90;;;;;;;13.73;57.60;99355.34;3563053;82;98799;-84
2022/04/24 19:12:49;;;;;;;11.95;6.15;;;;;;;13.69;58.56;99351.86;3549179;81;98873;-81
2022/04/24 19:17:51;;;;;;;10.97;5.47;;;;;;;13.63;58.93;99357.08;3559749;82;26455;-82
2022/04/24 19:22:52;;;;;;;10.70;5.40;;;;;;;13.59;59.54;99355.59;3542977;80;99080;-83
2022/04/24 19:27:53;;;;;;;11.03;5.90;;;;;;;13.52;60.59;99368.17;3420630;84;98784;-80
2022/04/24 19:32:54;;;;;;;11.10;6.80;;;;;;;13.48;60.27;99362.70;3458716;84;99016;-82
2022/04/24 19:37:55;;;;;;;13.53;6.30;;;;;;;13.42;61.03;99362.22;3487454;82;98901;-80
2022/04/24 19:42:56;;;;;;;10.30;6.90;;;;;;;13.32;61.90;99370.88;3462571;83;99277;-82
2022/04/24 19:53:18;;;;;;;11.18;6.35;;;;;;;13.08;62.92;99369.28;3502169;82;98636;-83
2022/04/24 19:58:23;;;;;;;12.60;6.87;;;;;;;13.00;63.09;99365.09;3485076;84;98764;-83
2022/04/24 20:03:25;;;;;;;11.55;6.85;;;;;;;12.91;63.78;99367.55;3472260;84;99227;-83
2022/04/24 20:08:26;;;;;;;11.93;6.40;;;;;;;12.80;63.99;99362.80;3507798;83;98817;-83
2022/04/24 20:13:27;;;;;;;13.17;6.77;;;;;;;12.68;64.62;99366.72;3455887;82;98855;-83
2022/04/24 20:18:28;;;;;;;13.53;6.63;;;;;;;12.54;65.18;99373.84;3524912;82;99236;-83
2022/04/24 20:23:29;;;;;;;13.30;6.25;;;;;;;12.44;65.11;99372.76;3547547;81;98617;-80
2022/04/24 20:28:30;;;;;;;12.40;6.80;;;;;;;12.33;65.36;99366.59;3595365;81;98565;-83
2022/04/24 20:33:31;;;;;;;13.43;6.83;;;;;;;12.19;65.49;99372.31;3588269;81;98985;-82
2022/04/24 20:38:32;;;;;;;12.10;6.63;;;;;;;12.06;65.62;99371.88;3566495;82;99023;-84
2022/04/24 20:43:33;;;;;;;12.73;6.97;;;;;;;11.95;65.74;99368.47;3534850;81;99215;-84
2022/04/24 20:48:34;;;;;;;13.17;8.60;;;;;;;11.82;66.13;99378.47;3549964;81;99123;-82
2022/04/24 20:53:35;;;;;;;11.97;6.50;;;;;;;11.69;66.28;99380.95;3568151;81;99144;-84
2022/04/24 20:58:36;;;;;;;13.40;7.13;;;;;;;11.59;66.51;99376.33;3582848;81;98651;-83
2022/04/24 21:03:37;;;;;;;15.60;7.92;;;;;;;11.54;66.55;99386.97;3532732;81;99031;-83
2022/04/24 21:08:38;;;;;;;12.70;7.25;;;;;;;11.45;66.99;99391.58;3585916;80;98728;-85
2022/04/24 21:13:39;;;;;;;14.43;7.93;;;;;;;11.37;67.31;99394.80;3560856;81;98945;-84
2022/04/24 21:18:40;;;;;;;12.33;7.00;;;;;;;11.26;67.25;99401.00;3549707;81;98869;-84
2022/04/24 21:23:41;;;;;;;14.00;7.43;;;;;;;11.17;67.30;99396.56;3565995;81;98754;-83
2022/04/24 21:28:43;;;;;;;18.43;7.37;;;;;;;11.12;67.86;99397.76;3529598;82;98687;-82
2022/04/24 21:33:44;;;;;;;15.53;7.60;;;;;;;11.05;68.13;99407.45;3523222;81;98620;-82
2022/04/24 21:38:45;;;;;;;13.73;6.93;;;;;;;10.94;68.40;99419.14;3527466;83;99161;-83
2022/04/24 21:43:45;;;;;;;13.53;7.12;;;;;;;10.85;68.88;99423.53;3525104;81;98813;-82
2022/04/24 21:48:46;;;;;;;15.53;6.87;;;;;;;10.77;69.15;99430.25;3531098;81;98889;-83
2022/04/24 21:53:48;;;;;;;12.97;6.87;;;;;;;10.69;69.54;99425.37;3530274;82;98859;-83
2022/04/24 21:58:49;;;;;;;14.07;6.80;;;;;;;10.65;69.94;99430.71;3428492;84;98731;-81
2022/04/24 22:09:09;;;;;;;14.55;6.90;;;;;;;10.51;71.01;99440.39;3433104;85;98859;-82
2022/04/24 22:14:10;;;;;;;12.00;7.40;;;;;;;10.40;71.56;99445.16;3501583;83;99474;-85
2022/04/24 22:19:11;;;;;;;13.80;7.20;;;;;;;10.28;71.51;99447.78;3509917;83;99275;-86
2022/04/24 22:24:25;;;;;;;11.83;6.60;;;;;;;10.19;71.74;99443.89;3496332;83;98730;-85
2022/04/24 22:29:28;;;;;;;13.05;6.70;;;;;;;10.04;72.15;99452.73;3508398;82;98567;-82
2022/04/24 22:34:30;;;;;;;14.78;6.50;;;;;;;9.87;72.28;99460.41;3486629;82;99104;-83
2022/04/24 22:39:30;;;;;;;11.83;6.53;;;;;;;9.80;72.30;99456.30;3483069;82;99031;-84
2022/04/24 22:44:32;;;;;;;10.87;6.17;;;;;;;9.76;72.88;99461.62;3488316;81;98735;-84
2022/04/24 22:49:33;;;;;;;10.13;5.60;;;;;;;9.70;73.01;99459.08;3510489;81;99049;-83
2022/04/24 22:54:34;;;;;;;9.80;5.13;;;;;;;9.64;72.75;99462.00;3525821;83;98587;-83
2022/04/24 22:59:35;;;;;;;11.67;5.47;;;;;;;9.47;73.19;99465.54;3495360;84;26191;-84
2022/04/24 23:04:36;;;;;;;11.43;5.50;;;;;;;9.47;73.19;99465.54;3577711;82;98307;-82
2022/04/24 23:09:36;;;;;;;9.20;4.70;;;;;;;9.41;73.19;99462.99;3529779;83;99005;-83
2022/04/24 23:14:37;;;;;;;12.60;5.27;;;;;;;9.28;73.53;99467.31;3554766;82;98623;-85
2022/04/24 23:19:38;;;;;;;10.10;4.77;;;;;;;9.21;73.53;99461.82;3572606;82;98882;-84
2022/04/24 23:24:40;;;;;;;10.58;4.83;;;;;;;9.17;74.04;99469.26;3557989;82;98881;-82
2022/04/24 23:29:42;;;;;;;10.15;5.25;;;;;;;9.14;74.17;99471.40;3434461;85;35511;-83
2022/04/24 23:34:48;;;;;;;12.05;6.15;;;;;;;9.14;74.46;99466.70;3543662;82;98444;-84
2022/04/24 23:39:46;;;;;;;11.48;5.90;;;;;;;9.07;75.26;99466.70;3547408;82;98436;-84
2022/04/24 23:44:47;;;;;;;11.50;5.50;;;;;;;8.98;75.25;99475.89;3547698;82;98437;-82
2022/04/24 23:49:47;;;;;;;12.30;5.93;;;;;;;8.91;76.00;99483.31;3548467;82;98483;-82
2022/04/24 23:54:48;;;;;;;11.67;5.33;;;;;;;8.85;76.15;99486.24;3553462;81;98844;-82
2022/04/24 23:59:50;;;;;;;13.20;5.90;;;;;;;8.80;76.64;99482.51;3548389;82;30039;-84
